createdAt,value
2018-05-25T00:00:00.084Z,89.00
2018-05-25T00:02:29.488Z,88.90
2018-05-25T00:04:58.789Z,89.30
2018-05-25T00:07:28.193Z,89.10
2018-05-25T00:09:57.495Z,89.40
2018-05-25T00:12:27.615Z,88.70
2018-05-25T00:14:56.917Z,89.10
2018-05-25T00:17:26.320Z,89.20
2018-05-25T00:19:55.622Z,89.10
2018-05-25T00:22:25.687Z,89.50
2018-05-25T00:24:55.043Z,88.70
2018-05-25T00:27:24.350Z,88.60
2018-05-25T00:29:54.464Z,89.00
2018-05-25T00:32:23.869Z,89.00
2018-05-25T00:34:53.168Z,89.30
2018-05-25T00:37:22.564Z,90.10
2018-05-25T00:39:51.982Z,89.70
2018-05-25T00:42:22.097Z,89.30
2018-05-25T00:44:52.217Z,89.40
2018-05-25T00:47:21.523Z,89.30
2018-05-25T00:49:51.638Z,90.40
2018-05-25T00:52:21.042Z,90.00
2018-05-25T00:55:08.145Z,90.60
2018-05-25T00:57:37.473Z,90.50
2018-05-25T01:00:07.892Z,90.70
2018-05-25T01:02:37.956Z,90.60
2018-05-25T01:05:07.306Z,90.60
2018-05-25T01:07:36.717Z,90.40
2018-05-25T01:10:06.120Z,90.50
2018-05-25T01:12:35.420Z,90.40
2018-05-25T01:15:04.825Z,90.40
2018-05-25T01:17:34.132Z,90.40
2018-05-25T01:20:04.350Z,90.30
2018-05-25T01:22:33.752Z,90.20
2018-05-25T01:25:03.156Z,90.10
2018-05-25T01:27:32.566Z,90.00
2018-05-25T01:30:02.683Z,90.00
2018-05-25T01:32:32.800Z,90.30
2018-05-25T01:35:02.102Z,90.00
2018-05-25T01:37:31.403Z,90.10
2018-05-25T01:40:00.699Z,90.20
2018-05-25T01:42:30.012Z,90.40
2018-05-25T01:45:00.126Z,90.10
2018-05-25T01:47:29.530Z,90.10
2018-05-25T01:49:58.830Z,90.30
2018-05-25T01:52:28.235Z,90.10
2018-05-25T01:54:57.539Z,90.30
2018-05-25T01:57:26.939Z,90.20
2018-05-25T01:59:56.246Z,90.20
2018-05-25T02:02:25.645Z,90.10
2018-05-25T02:04:54.951Z,90.10
2018-05-25T02:07:24.350Z,90.10
2018-05-25T02:09:53.754Z,90.10
2018-05-25T02:12:23.159Z,90.10
2018-05-25T02:14:52.562Z,90.20
2018-05-25T02:17:21.854Z,90.20
2018-05-25T02:19:51.265Z,90.10
2018-05-25T02:22:20.669Z,90.30
2018-05-25T02:24:50.175Z,90.40
2018-05-25T02:27:20.303Z,90.30
2018-05-25T02:29:50.415Z,90.40
2018-05-25T02:32:19.819Z,90.40
2018-05-25T02:34:49.121Z,90.90
2018-05-25T02:37:18.527Z,91.00
2018-05-25T02:39:48.644Z,90.70
2018-05-25T02:42:18.053Z,90.60
2018-05-25T02:44:48.169Z,90.70
2018-05-25T02:47:17.580Z,90.40
2018-05-25T02:49:47.638Z,90.90
2018-05-25T02:52:16.940Z,90.80
2018-05-25T02:54:46.298Z,90.90
2018-05-25T02:57:16.383Z,90.90
2018-05-25T02:59:45.718Z,90.80
2018-05-25T03:02:15.005Z,90.70
2018-05-25T03:04:44.322Z,90.50
2018-05-25T03:07:14.439Z,91.00
2018-05-25T03:09:43.844Z,90.60
2018-05-25T03:12:13.966Z,90.70
2018-05-25T03:14:44.033Z,90.50
2018-05-25T03:17:13.387Z,90.40
2018-05-25T03:19:42.790Z,90.30
2018-05-25T03:22:12.192Z,90.40
2018-05-25T03:24:41.496Z,90.50
2018-05-25T03:27:11.614Z,90.70
2018-05-25T03:29:40.916Z,90.70
2018-05-25T03:32:10.218Z,90.70
2018-05-25T03:34:39.580Z,90.70
2018-05-25T03:37:08.922Z,90.80
2018-05-25T03:39:38.211Z,90.80
2018-05-25T03:42:07.525Z,90.80
2018-05-25T03:44:36.916Z,90.80
2018-05-25T03:47:06.230Z,90.70
2018-05-25T03:49:35.632Z,90.70
2018-05-25T03:52:05.041Z,90.60
2018-05-25T03:54:34.439Z,90.50
2018-05-25T03:57:03.844Z,90.40
2018-05-25T03:59:50.962Z,90.20
2018-05-25T04:02:20.265Z,90.80
2018-05-25T04:04:49.668Z,90.30
2018-05-25T04:07:18.969Z,90.30
2018-05-25T04:09:48.271Z,90.10
2018-05-25T04:12:17.676Z,90.30
2018-05-25T04:14:46.975Z,90.50
2018-05-25T04:17:16.267Z,90.30
2018-05-25T04:19:45.578Z,90.40
2018-05-25T04:22:14.871Z,90.40
2018-05-25T04:24:44.179Z,90.40
2018-05-25T04:27:13.477Z,90.40
2018-05-25T04:29:42.885Z,90.30
2018-05-25T04:32:12.183Z,90.30
2018-05-25T04:34:41.591Z,90.20
2018-05-25T04:37:11.715Z,90.40
2018-05-25T04:39:41.104Z,90.40
2018-05-25T04:42:10.421Z,90.40
2018-05-25T04:44:39.815Z,90.40
2018-05-25T04:47:09.119Z,90.30
2018-05-25T04:49:38.365Z,90.30
2018-05-25T04:52:07.723Z,90.30
2018-05-25T04:54:37.027Z,90.40
2018-05-25T04:57:07.145Z,90.80
2018-05-25T04:59:36.447Z,90.60
2018-05-25T05:02:05.844Z,90.70
2018-05-25T05:04:36.687Z,90.60
2018-05-25T05:07:06.097Z,90.60
2018-05-25T05:09:36.213Z,90.70
2018-05-25T05:12:05.616Z,90.30
2018-05-25T05:14:34.920Z,90.80
2018-05-25T05:17:04.322Z,90.30
2018-05-25T05:19:34.426Z,90.10
2018-05-25T05:22:03.742Z,90.10
2018-05-25T05:24:33.042Z,90.00
2018-05-25T05:27:02.447Z,90.10
2018-05-25T05:29:31.851Z,90.20
2018-05-25T05:32:01.152Z,89.60
2018-05-25T05:34:30.556Z,89.60
2018-05-25T05:37:01.393Z,89.50
2018-05-25T05:39:30.796Z,89.50
2018-05-25T05:42:00.190Z,89.20
2018-05-25T05:44:29.503Z,89.20
2018-05-25T05:46:58.906Z,89.00
2018-05-25T05:49:28.970Z,88.90
2018-05-25T05:51:58.325Z,88.80
2018-05-25T05:54:27.618Z,88.50
2018-05-25T05:56:57.032Z,88.70
2018-05-25T05:59:26.436Z,88.80
2018-05-25T06:01:55.838Z,88.70
2018-05-25T06:04:25.294Z,90.00
2018-05-25T06:06:54.645Z,89.80
2018-05-25T06:09:24.049Z,87.70
2018-05-25T06:11:54.171Z,88.40
2018-05-25T06:14:24.292Z,88.60
2018-05-25T06:16:53.693Z,87.90
2018-05-25T06:19:22.997Z,87.40
2018-05-25T06:21:52.400Z,87.30
2018-05-25T06:24:22.526Z,87.90
2018-05-25T06:26:52.640Z,86.30
2018-05-25T06:29:21.941Z,86.30
2018-05-25T06:31:51.348Z,86.40
2018-05-25T06:34:21.465Z,85.70
2018-05-25T06:36:50.765Z,85.70
2018-05-25T06:39:20.894Z,86.00
2018-05-25T06:41:51.007Z,84.20
2018-05-25T06:44:21.101Z,84.00
2018-05-25T06:46:50.416Z,84.00
2018-05-25T06:49:19.729Z,83.80
2018-05-25T06:51:49.032Z,83.50
2018-05-25T06:54:18.338Z,84.30
2018-05-25T06:56:48.453Z,85.10
2018-05-25T06:59:17.753Z,85.10
2018-05-25T07:01:47.063Z,84.50
2018-05-25T07:04:17.278Z,82.80
2018-05-25T07:06:46.580Z,82.80
2018-05-25T07:09:15.982Z,82.50
2018-05-25T07:11:45.285Z,82.90
2018-05-25T07:14:14.791Z,83.20
2018-05-25T07:16:44.174Z,83.20
2018-05-25T07:19:13.496Z,81.70
2018-05-25T07:21:42.900Z,81.30
2018-05-25T07:24:13.065Z,81.00
2018-05-25T07:26:42.424Z,81.10
2018-05-25T07:29:11.725Z,80.50
2018-05-25T07:31:41.846Z,81.00
2018-05-25T07:34:11.965Z,81.10
2018-05-25T07:36:41.352Z,80.60
2018-05-25T07:39:10.671Z,80.70
2018-05-25T07:41:39.971Z,79.70
2018-05-25T07:44:09.375Z,79.20
2018-05-25T07:46:39.495Z,78.40
2018-05-25T07:49:08.903Z,77.80
2018-05-25T07:51:38.197Z,78.30
2018-05-25T07:54:07.561Z,76.90
2018-05-25T07:56:36.902Z,77.00
2018-05-25T07:59:06.268Z,76.60
2018-05-25T08:01:35.613Z,76.10
2018-05-25T08:04:05.015Z,76.40
2018-05-25T08:06:34.417Z,74.00
2018-05-25T08:09:03.930Z,75.20
2018-05-25T08:11:34.044Z,75.90
2018-05-25T08:14:03.436Z,75.90
2018-05-25T08:16:32.748Z,76.50
2018-05-25T08:19:02.050Z,76.50
2018-05-25T08:21:31.455Z,75.40
2018-05-25T08:24:01.420Z,77.30
2018-05-25T08:26:30.879Z,76.40
2018-05-25T08:29:00.996Z,71.80
2018-05-25T08:31:31.117Z,72.70
2018-05-25T08:34:01.181Z,71.90
2018-05-25T08:36:30.542Z,71.80
2018-05-25T08:39:00.659Z,70.80
2018-05-25T08:41:30.062Z,70.70
2018-05-25T08:43:59.472Z,72.20
2018-05-25T08:46:29.593Z,71.50
2018-05-25T08:48:59.654Z,71.80
2018-05-25T08:51:28.997Z,71.70
2018-05-25T08:53:58.315Z,69.70
2018-05-25T08:56:28.429Z,69.30
2018-05-25T08:58:57.772Z,69.20
2018-05-25T09:01:27.033Z,68.40
2018-05-25T09:03:56.436Z,68.20
2018-05-25T09:06:26.561Z,69.20
2018-05-25T09:08:56.679Z,67.90
2018-05-25T09:11:26.796Z,68.10
2018-05-25T09:13:56.201Z,68.10
2018-05-25T09:16:25.501Z,67.30
2018-05-25T09:18:54.905Z,67.70
2018-05-25T09:21:24.307Z,66.10
2018-05-25T09:23:53.711Z,67.30
2018-05-25T09:26:23.117Z,69.00
2018-05-25T09:28:52.418Z,68.50
2018-05-25T09:31:21.718Z,68.40
2018-05-25T09:33:51.840Z,67.60
2018-05-25T09:36:21.981Z,66.40
2018-05-25T09:38:51.366Z,65.50
2018-05-25T09:41:20.766Z,67.60
2018-05-25T09:43:50.171Z,65.60
2018-05-25T09:46:19.464Z,64.90
2018-05-25T09:48:48.886Z,68.60
2018-05-25T09:51:18.177Z,67.50
2018-05-25T09:53:47.582Z,66.50
2018-05-25T09:56:16.882Z,64.90
2018-05-25T09:58:46.286Z,65.50
2018-05-25T10:01:15.584Z,61.80
2018-05-25T10:03:44.989Z,66.20
2018-05-25T10:06:14.389Z,66.20
2018-05-25T10:08:43.694Z,63.90
2018-05-25T10:11:12.999Z,64.30
2018-05-25T10:13:42.298Z,64.20
2018-05-25T10:16:12.418Z,64.20
2018-05-25T10:18:41.718Z,64.10
2018-05-25T10:21:11.108Z,64.70
2018-05-25T10:23:40.424Z,64.20
2018-05-25T10:26:09.827Z,61.50
2018-05-25T10:28:39.132Z,61.20
2018-05-25T10:31:08.431Z,62.80
2018-05-25T10:33:37.833Z,61.90
2018-05-25T10:36:07.238Z,62.00
2018-05-25T10:38:36.646Z,64.00
2018-05-25T10:41:06.837Z,62.40
2018-05-25T10:43:36.149Z,62.40
2018-05-25T10:46:05.569Z,62.70
2018-05-25T10:48:34.874Z,62.80
2018-05-25T10:51:05.099Z,59.80
2018-05-25T10:53:35.158Z,59.90
2018-05-25T10:56:04.618Z,60.50
2018-05-25T10:58:33.918Z,60.00
2018-05-25T11:01:03.323Z,60.20
2018-05-25T11:03:32.622Z,60.20
2018-05-25T11:06:01.893Z,60.60
2018-05-25T11:08:31.327Z,62.00
2018-05-25T11:11:00.730Z,62.80
2018-05-25T11:13:30.135Z,63.80
2018-05-25T11:15:59.437Z,63.90
2018-05-25T11:18:29.563Z,66.50
2018-05-25T11:20:59.736Z,67.20
2018-05-25T11:23:29.081Z,67.20
2018-05-25T11:25:58.382Z,67.70
2018-05-25T11:28:27.786Z,68.60
2018-05-25T11:30:57.190Z,70.60
2018-05-25T11:33:26.489Z,67.80
2018-05-25T11:35:55.854Z,69.70
2018-05-25T11:38:25.195Z,69.70
2018-05-25T11:40:54.486Z,70.80
2018-05-25T11:43:23.801Z,71.40
2018-05-25T11:45:53.104Z,70.80
2018-05-25T11:48:23.220Z,71.60
2018-05-25T11:50:52.524Z,70.90
2018-05-25T11:53:21.871Z,70.60
2018-05-25T11:55:51.180Z,69.10
2018-05-25T11:58:20.521Z,68.50
2018-05-25T12:00:49.937Z,67.80
2018-05-25T12:03:19.334Z,68.30
2018-05-25T12:05:48.738Z,66.80
2018-05-25T12:08:18.090Z,68.60
2018-05-25T12:10:47.448Z,68.60
2018-05-25T12:13:17.566Z,65.20
2018-05-25T12:15:46.858Z,65.10
2018-05-25T12:18:16.166Z,64.80
2018-05-25T12:20:45.563Z,65.50
2018-05-25T12:23:15.792Z,64.60
2018-05-25T12:25:45.196Z,65.30
2018-05-25T12:28:14.498Z,66.30
2018-05-25T12:30:43.900Z,66.30
2018-05-25T12:33:13.191Z,63.60
2018-05-25T12:35:42.506Z,62.70
2018-05-25T12:38:11.798Z,62.70
2018-05-25T12:40:41.104Z,62.30
2018-05-25T12:43:10.510Z,63.00
2018-05-25T12:45:39.812Z,62.80
2018-05-25T12:48:09.216Z,63.00
2018-05-25T12:50:38.622Z,61.50
2018-05-25T12:53:08.741Z,61.00
2018-05-25T12:55:38.089Z,60.90
2018-05-25T12:58:07.342Z,61.40
2018-05-25T13:00:36.744Z,59.80
2018-05-25T13:03:06.045Z,59.50
2018-05-25T13:05:35.397Z,58.50
2018-05-25T13:08:04.751Z,59.50
2018-05-25T13:10:34.154Z,59.90
2018-05-25T13:13:03.563Z,60.10
2018-05-25T13:15:33.679Z,58.60
2018-05-25T13:18:03.082Z,58.60
2018-05-25T13:20:32.383Z,59.20
2018-05-25T13:23:01.685Z,58.00
2018-05-25T13:25:30.986Z,58.50
2018-05-25T13:28:00.389Z,58.50
2018-05-25T13:30:29.750Z,59.20
2018-05-25T13:32:59.103Z,58.80
2018-05-25T13:35:29.215Z,58.50
2018-05-25T13:37:58.517Z,58.50
2018-05-25T13:40:28.636Z,60.00
2018-05-25T13:42:58.041Z,59.80
2018-05-25T13:45:27.343Z,60.30
2018-05-25T13:47:57.464Z,59.90
2018-05-25T13:50:26.763Z,60.20
2018-05-25T13:52:56.169Z,59.80
2018-05-25T13:55:26.239Z,60.30
2018-05-25T13:57:55.574Z,59.70
2018-05-25T14:00:24.889Z,60.20
2018-05-25T14:02:54.192Z,59.20
2018-05-25T14:05:23.597Z,59.50
2018-05-25T14:07:52.887Z,58.40
2018-05-25T14:10:23.733Z,58.80
2018-05-25T14:12:53.036Z,58.80
2018-05-25T14:15:22.335Z,57.60
2018-05-25T14:17:51.626Z,57.90
2018-05-25T14:20:20.940Z,58.50
2018-05-25T14:22:50.341Z,59.10
2018-05-25T14:25:19.644Z,58.80
2018-05-25T14:27:49.039Z,58.90
2018-05-25T14:30:18.351Z,57.40
2018-05-25T14:32:47.751Z,56.50
2018-05-25T14:35:18.584Z,56.10
2018-05-25T14:37:47.878Z,56.00
2018-05-25T14:40:17.192Z,57.00
2018-05-25T14:42:46.596Z,58.20
2018-05-25T14:45:17.433Z,58.80
2018-05-25T14:47:46.837Z,58.70
2018-05-25T14:50:16.239Z,58.00
2018-05-25T14:52:45.543Z,58.20
2018-05-25T14:55:14.944Z,58.10
2018-05-25T14:57:44.250Z,59.10
2018-05-25T15:00:13.598Z,58.90
2018-05-25T15:02:42.957Z,59.50
2018-05-25T15:05:13.073Z,59.10
2018-05-25T15:07:42.465Z,59.10
2018-05-25T15:10:11.880Z,58.90
2018-05-25T15:12:41.283Z,59.80
2018-05-25T15:15:10.584Z,61.30
2018-05-25T15:17:39.876Z,60.60
2018-05-25T15:20:09.192Z,63.10
2018-05-25T15:22:39.305Z,58.30
2018-05-25T15:25:08.699Z,58.30
2018-05-25T15:27:38.012Z,57.40
2018-05-25T15:30:07.416Z,56.70
2018-05-25T15:32:36.838Z,56.40
2018-05-25T15:35:06.062Z,55.50
2018-05-25T15:37:35.420Z,55.60
2018-05-25T15:40:04.824Z,55.90
2018-05-25T15:42:34.228Z,55.20
2018-05-25T15:45:03.529Z,56.00
2018-05-25T15:47:32.934Z,56.40
2018-05-25T15:50:02.234Z,56.40
2018-05-25T15:52:31.536Z,56.90
2018-05-25T15:55:00.937Z,56.00
2018-05-25T15:57:30.241Z,56.10
2018-05-25T15:59:59.644Z,55.90
2018-05-25T16:02:28.971Z,56.50
2018-05-25T16:04:58.349Z,55.00
2018-05-25T16:07:27.597Z,55.40
2018-05-25T16:09:56.954Z,56.80
2018-05-25T16:12:26.248Z,56.90
2018-05-25T16:14:55.537Z,57.70
2018-05-25T16:17:24.957Z,57.90
2018-05-25T16:19:54.261Z,57.90
2018-05-25T16:22:23.668Z,58.10
2018-05-25T16:24:53.049Z,58.10
2018-05-25T16:27:22.365Z,56.90
2018-05-25T16:29:51.672Z,58.00
2018-05-25T16:32:20.971Z,57.80
2018-05-25T16:34:50.374Z,59.30
2018-05-25T16:37:19.678Z,60.70
2018-05-25T16:39:49.796Z,60.00
2018-05-25T16:42:19.097Z,60.00
2018-05-25T16:44:48.503Z,59.80
2018-05-25T16:47:18.006Z,61.40
2018-05-25T16:49:47.307Z,61.90
2018-05-25T16:52:16.701Z,61.00
2018-05-25T16:54:45.911Z,61.50
2018-05-25T16:57:15.980Z,63.00
2018-05-25T16:59:45.318Z,62.00
2018-05-25T17:02:16.169Z,62.50
2018-05-25T17:04:45.474Z,62.50
2018-05-25T17:07:14.874Z,62.50
2018-05-25T17:09:44.178Z,62.80
2018-05-25T17:12:13.572Z,62.30
2018-05-25T17:14:42.880Z,62.30
2018-05-25T17:17:12.283Z,61.50
2018-05-25T17:19:41.569Z,60.60
2018-05-25T17:22:10.886Z,62.40
2018-05-25T17:24:40.290Z,61.90
2018-05-25T17:27:09.602Z,61.90
2018-05-25T17:29:39.712Z,61.50
2018-05-25T17:32:09.012Z,61.50
2018-05-25T17:34:38.318Z,61.30
2018-05-25T17:37:07.721Z,60.60
2018-05-25T17:39:37.787Z,59.80
2018-05-25T17:42:07.151Z,59.80
2018-05-25T17:44:36.541Z,59.30
2018-05-25T17:47:05.945Z,60.50
2018-05-25T17:49:35.349Z,59.50
2018-05-25T17:52:04.752Z,60.50
2018-05-25T17:54:34.164Z,59.80
2018-05-25T17:57:04.279Z,61.00
2018-05-25T17:59:33.666Z,60.90
2018-05-25T18:02:02.986Z,62.10
2018-05-25T18:04:32.390Z,62.10
2018-05-25T18:07:02.539Z,63.10
2018-05-25T18:09:31.909Z,63.10
2018-05-25T18:12:01.296Z,63.60
2018-05-25T18:14:30.619Z,64.90
2018-05-25T18:17:00.020Z,66.30
2018-05-25T18:19:29.320Z,66.00
2018-05-25T18:21:59.382Z,68.00
2018-05-25T18:24:28.743Z,67.20
2018-05-25T18:26:58.041Z,68.00
2018-05-25T18:29:27.344Z,68.20
2018-05-25T18:31:56.747Z,68.60
2018-05-25T18:34:26.036Z,69.60
2018-05-25T18:36:55.350Z,69.50
2018-05-25T18:39:24.754Z,69.50
2018-05-25T18:41:55.583Z,69.40
2018-05-25T18:44:24.897Z,69.40
2018-05-25T18:46:54.911Z,70.50
2018-05-25T18:49:24.315Z,70.40
2018-05-25T18:51:53.653Z,71.20
2018-05-25T18:54:34.741Z,70.80
2018-05-25T18:57:04.102Z,71.00
2018-05-25T18:59:33.397Z,73.00
2018-05-25T19:02:02.806Z,73.50
2018-05-25T19:04:32.892Z,74.00
2018-05-25T19:07:02.223Z,74.00
2018-05-25T19:09:31.629Z,74.30
2018-05-25T19:12:00.919Z,74.60
2018-05-25T19:14:30.331Z,75.40
2018-05-25T19:16:59.735Z,75.10
2018-05-25T19:19:28.984Z,74.50
2018-05-25T19:21:58.337Z,73.50
2018-05-25T19:24:27.741Z,73.10
2018-05-25T19:26:57.081Z,73.30
2018-05-25T19:29:26.428Z,72.60
2018-05-25T19:31:55.745Z,72.60
2018-05-25T19:34:25.034Z,72.30
2018-05-25T19:36:54.351Z,72.60
2018-05-25T19:39:23.754Z,72.90
2018-05-25T19:41:53.055Z,73.50
2018-05-25T19:44:22.356Z,74.40
2018-05-25T19:46:51.760Z,74.80
2018-05-25T19:49:21.061Z,74.70
2018-05-25T19:51:50.465Z,75.10
2018-05-25T19:54:19.858Z,75.30
2018-05-25T19:56:49.172Z,76.10
2018-05-25T19:59:19.292Z,76.10
2018-05-25T20:01:48.681Z,75.80
2018-05-25T20:04:17.968Z,76.20
2018-05-25T20:06:47.295Z,76.50
2018-05-25T20:09:16.700Z,76.60
2018-05-25T20:11:46.001Z,76.80
2018-05-25T20:14:15.408Z,77.30
2018-05-25T20:16:44.803Z,78.20
2018-05-25T20:19:14.116Z,77.80
2018-05-25T20:21:44.232Z,78.00
2018-05-25T20:24:13.635Z,78.00
2018-05-25T20:26:43.697Z,77.40
2018-05-25T20:29:13.058Z,77.20
2018-05-25T20:31:42.357Z,76.40
2018-05-25T20:34:11.658Z,75.80
2018-05-25T20:36:41.779Z,75.70
2018-05-25T20:39:11.898Z,75.20
2018-05-25T20:41:41.305Z,75.10
2018-05-25T20:44:10.595Z,76.10
2018-05-25T20:46:39.909Z,75.80
2018-05-25T20:49:10.025Z,76.30
2018-05-25T20:51:39.327Z,76.30
2018-05-25T20:54:08.729Z,76.90
2018-05-25T20:56:38.031Z,77.10
2018-05-25T20:59:07.436Z,77.40
2018-05-25T21:01:36.838Z,78.10
2018-05-25T21:04:06.960Z,79.50
2018-05-25T21:06:36.263Z,78.60
2018-05-25T21:09:08.424Z,79.60
2018-05-25T21:11:37.831Z,78.90
2018-05-25T21:14:07.133Z,79.00
2018-05-25T21:16:36.537Z,78.90
2018-05-25T21:19:05.944Z,79.00
2018-05-25T21:21:35.250Z,79.40
2018-05-25T21:24:05.362Z,80.20
2018-05-25T21:26:34.669Z,79.50
2018-05-25T21:29:04.771Z,79.90
2018-05-25T21:31:34.187Z,79.80
2018-05-25T21:34:03.478Z,80.10
2018-05-25T21:36:32.892Z,80.40
2018-05-25T21:39:02.280Z,80.50
2018-05-25T21:41:31.597Z,80.60
2018-05-25T21:44:00.891Z,80.70
2018-05-25T21:46:30.205Z,81.10
2018-05-25T21:48:59.602Z,81.30
2018-05-25T21:51:29.007Z,81.30
2018-05-25T21:53:58.376Z,82.00
2018-05-25T21:56:27.616Z,83.30
2018-05-25T21:58:57.731Z,83.00
2018-05-25T22:01:27.137Z,83.00
2018-05-25T22:03:56.537Z,83.10
2018-05-25T22:06:25.942Z,83.30
2018-05-25T22:08:55.345Z,82.70
2018-05-25T22:11:24.752Z,83.80
2018-05-25T22:13:54.818Z,83.00
2018-05-25T22:16:24.219Z,82.90
2018-05-25T22:18:53.576Z,82.80
2018-05-25T22:21:22.972Z,82.70
2018-05-25T22:23:52.264Z,83.00
2018-05-25T22:26:21.580Z,82.90
2018-05-25T22:28:50.984Z,82.80
2018-05-25T22:31:20.285Z,83.60
2018-05-25T22:33:49.690Z,83.00
2018-05-25T22:36:19.098Z,83.00
2018-05-25T22:38:49.212Z,83.30
2018-05-25T22:41:18.618Z,83.00
2018-05-25T22:44:05.736Z,82.90
2018-05-25T22:46:52.914Z,82.80
2018-05-25T22:49:40.110Z,82.80
2018-05-25T22:52:22.076Z,82.90
2018-05-25T22:54:59.671Z,83.20
2018-05-25T22:57:29.017Z,83.20
2018-05-25T22:59:58.379Z,82.70
2018-05-25T23:02:27.780Z,83.60
2018-05-25T23:04:57.181Z,84.60
2018-05-25T23:07:26.471Z,83.80
2018-05-25T23:09:55.785Z,83.90
2018-05-25T23:12:25.190Z,84.10
2018-05-25T23:14:54.489Z,84.80
2018-05-25T23:17:23.896Z,84.60
2018-05-25T23:19:53.296Z,85.60
2018-05-25T23:22:22.599Z,86.00
2018-05-25T23:24:52.720Z,86.60
2018-05-25T23:27:22.123Z,85.90
2018-05-25T23:29:52.243Z,85.90
2018-05-25T23:32:21.549Z,85.50
2018-05-25T23:34:51.665Z,85.70
2018-05-25T23:37:21.060Z,84.90
2018-05-25T23:39:50.370Z,84.50
2018-05-25T23:42:19.671Z,84.20
2018-05-25T23:44:49.075Z,84.10
2018-05-25T23:47:18.367Z,84.10
2018-05-25T23:49:47.679Z,84.00
2018-05-25T23:52:17.073Z,84.10
2018-05-25T23:54:46.538Z,84.30
2018-05-25T23:57:15.890Z,84.10
2018-05-25T23:59:45.293Z,84.30
